createdAt,value
2018-09-03T00:00:22.226Z,102129.02
2018-09-03T00:02:51.295Z,102133.00
2018-09-03T00:05:20.225Z,102134.16
2018-09-03T00:07:49.175Z,102134.73
2018-09-03T00:10:18.216Z,102134.31
2018-09-03T00:12:47.168Z,102128.63
2018-09-03T00:15:16.094Z,102131.06
2018-09-03T00:17:45.062Z,102128.56
2018-09-03T00:20:14.016Z,102120.12
2018-09-03T00:22:43.046Z,102116.64
2018-09-03T00:25:12.138Z,102116.43
2018-09-03T00:27:41.162Z,102123.20
2018-09-03T00:30:10.090Z,102118.84
2018-09-03T00:32:44.309Z,102117.73
2018-09-03T00:35:18.550Z,102119.34
2018-09-03T00:37:52.794Z,102108.70
2018-09-03T00:40:26.948Z,102113.52
2018-09-03T00:43:01.164Z,102104.78
2018-09-03T00:45:35.433Z,102096.48
2018-09-03T00:48:04.361Z,102094.97
2018-09-03T00:50:33.297Z,102092.39
2018-09-03T00:53:02.350Z,102088.53
2018-09-03T00:55:31.300Z,102086.52
2018-09-03T00:58:00.173Z,102081.15
2018-09-03T01:00:29.089Z,102079.31
2018-09-03T01:02:58.011Z,102073.20
2018-09-03T01:05:26.934Z,102070.73
2018-09-03T01:07:55.879Z,102064.91
2018-09-03T01:10:25.882Z,102069.62
2018-09-03T01:12:54.791Z,102070.97
2018-09-03T01:15:24.143Z,102074.37
2018-09-03T01:17:53.061Z,102068.14
2018-09-03T01:20:22.135Z,102055.80
2018-09-03T01:22:51.081Z,102052.48
2018-09-03T01:25:20.030Z,102063.18
2018-09-03T01:27:48.958Z,102061.75
2018-09-03T01:30:17.902Z,102051.38
2018-09-03T01:32:46.870Z,102054.50
2018-09-03T01:35:15.833Z,102052.11
2018-09-03T01:37:44.805Z,102051.70
2018-09-03T01:40:13.763Z,102051.17
2018-09-03T01:42:42.754Z,102061.05
2018-09-03T01:45:11.730Z,102060.02
2018-09-03T01:47:40.672Z,102055.23
2018-09-03T01:50:09.649Z,102058.80
2018-09-03T01:52:38.664Z,102056.95
2018-09-03T01:55:07.702Z,102062.77
2018-09-03T01:57:36.653Z,102062.28
2018-09-03T02:00:05.620Z,102054.70
2018-09-03T02:02:34.602Z,102048.55
2018-09-03T02:05:03.595Z,102047.84
2018-09-03T02:07:32.569Z,102044.41
2018-09-03T02:10:01.582Z,102046.73
2018-09-03T02:12:30.689Z,102038.99
2018-09-03T02:14:59.626Z,102034.23
2018-09-03T02:17:28.592Z,102036.00
2018-09-03T02:19:57.503Z,102037.34
2018-09-03T02:22:32.663Z,102040.96
2018-09-03T02:25:01.584Z,102027.50
2018-09-03T02:27:30.964Z,102031.36
2018-09-03T02:29:59.864Z,102026.08
2018-09-03T02:33:58.267Z,102016.80
2018-09-03T02:36:27.315Z,102018.41
2018-09-03T02:38:56.237Z,102013.86
2018-09-03T02:41:25.147Z,102010.33
2018-09-03T02:43:54.040Z,102006.06
2018-09-03T02:46:23.312Z,102011.27
2018-09-03T02:48:52.359Z,102006.03
2018-09-03T02:51:21.917Z,102006.11
2018-09-03T02:53:53.421Z,102003.33
2018-09-03T02:56:22.464Z,102007.09
2018-09-03T02:58:51.399Z,102008.66
2018-09-03T03:01:20.443Z,102017.34
2018-09-03T03:03:52.916Z,102019.51
2018-09-03T03:06:22.397Z,102016.52
2018-09-03T03:08:51.294Z,102017.75
2018-09-03T03:11:20.705Z,102019.27
2018-09-03T03:13:50.215Z,102017.05
2018-09-03T03:16:19.888Z,102015.78
2018-09-03T03:18:49.570Z,102022.14
2018-09-03T03:21:19.002Z,102021.69
2018-09-03T03:23:48.358Z,102022.27
2018-09-03T03:26:24.520Z,102018.25
2018-09-03T03:28:56.068Z,102014.68
2018-09-03T03:31:25.049Z,102010.13
2018-09-03T03:33:54.018Z,102013.61
2018-09-03T03:36:23.011Z,102018.58
2018-09-03T03:38:51.961Z,102018.91
2018-09-03T03:41:20.975Z,102021.06
2018-09-03T03:43:49.876Z,102021.27
2018-09-03T03:46:18.795Z,102020.61
2018-09-03T03:48:47.845Z,102017.73
2018-09-03T03:51:17.028Z,102019.12
2018-09-03T03:53:52.568Z,102016.32
2018-09-03T03:56:21.495Z,102020.53
2018-09-03T03:58:53.398Z,102013.22
2018-09-03T04:01:22.398Z,102014.19
2018-09-03T04:03:51.349Z,102016.32
2018-09-03T04:06:20.251Z,102016.50
2018-09-03T04:08:49.181Z,102015.69
2018-09-03T04:11:32.577Z,102009.84
2018-09-03T04:14:02.292Z,102010.77
2018-09-03T04:16:31.476Z,102003.77
2018-09-03T04:19:00.856Z,102000.91
2018-09-03T04:21:30.129Z,102014.45
2018-09-03T04:23:59.543Z,102003.33
2018-09-03T04:26:28.993Z,102013.09
2018-09-03T04:28:58.341Z,102018.52
2018-09-03T04:31:27.670Z,102014.22
2018-09-03T04:33:58.095Z,101999.73
2018-09-03T04:36:27.485Z,102007.08
2018-09-03T04:38:59.287Z,102002.73
2018-09-03T04:41:28.335Z,101998.50
2018-09-03T04:43:57.378Z,101999.16
2018-09-03T04:46:26.308Z,102000.11
2018-09-03T04:48:55.235Z,101990.60
2018-09-03T04:51:24.153Z,101986.63
2018-09-03T04:53:53.139Z,101982.85
2018-09-03T04:56:22.124Z,101975.17
2018-09-03T04:58:51.042Z,101981.62
2018-09-03T05:01:20.011Z,101981.21
2018-09-03T05:03:50.673Z,101983.75
2018-09-03T05:06:19.576Z,101975.23
2018-09-03T05:08:48.581Z,101971.45
2018-09-03T05:11:19.012Z,101970.02
2018-09-03T05:13:48.120Z,101963.25
2018-09-03T05:16:17.072Z,101965.37
2018-09-03T05:18:46.108Z,101959.77
2018-09-03T05:21:15.689Z,101970.02
2018-09-03T05:23:44.578Z,101969.27
2018-09-03T05:26:13.528Z,101973.70
2018-09-03T05:28:42.475Z,101975.23
2018-09-03T05:31:11.426Z,101968.05
2018-09-03T05:33:40.350Z,101971.05
2018-09-03T05:36:09.234Z,101975.75
2018-09-03T05:38:38.144Z,101975.63
2018-09-03T05:41:07.089Z,101986.25
2018-09-03T05:43:36.247Z,101988.96
2018-09-03T05:46:05.068Z,101982.80
2018-09-03T05:48:34.184Z,101975.83
2018-09-03T05:51:03.140Z,101973.13
2018-09-03T05:53:32.153Z,101973.33
2018-09-03T05:56:01.054Z,101973.16
2018-09-03T05:58:30.038Z,101967.36
2018-09-03T06:00:58.979Z,101973.16
2018-09-03T06:03:27.906Z,101966.18
2018-09-03T06:05:56.857Z,101963.88
2018-09-03T06:08:25.771Z,101964.45
2018-09-03T06:10:54.744Z,101967.34
2018-09-03T06:13:23.789Z,101970.82
2018-09-03T06:15:52.771Z,101957.58
2018-09-03T06:18:21.799Z,101961.66
2018-09-03T06:20:50.796Z,101965.48
2018-09-03T06:23:19.802Z,101971.48
2018-09-03T06:25:48.702Z,101965.23
2018-09-03T06:28:17.631Z,101973.35
2018-09-03T06:30:46.553Z,101968.63
2018-09-03T06:33:15.444Z,101977.21
2018-09-03T06:35:44.546Z,101973.38
2018-09-03T06:38:13.412Z,101973.17
2018-09-03T06:40:42.363Z,101976.89
2018-09-03T06:43:11.274Z,101968.55
2018-09-03T06:45:40.195Z,101976.91
2018-09-03T06:48:09.155Z,101977.10
2018-09-03T06:50:38.115Z,101971.11
2018-09-03T06:53:07.088Z,101971.51
2018-09-03T06:55:36.171Z,101976.70
2018-09-03T06:58:05.162Z,101966.45
2018-09-03T07:00:34.196Z,101970.59
2018-09-03T07:03:03.157Z,101969.16
2018-09-03T07:05:32.151Z,101973.98
2018-09-03T07:08:01.049Z,101979.41
2018-09-03T07:10:30.005Z,101982.80
2018-09-03T07:12:58.933Z,101986.58
2018-09-03T07:15:27.821Z,101982.22
2018-09-03T07:17:56.786Z,101983.13
2018-09-03T07:20:25.824Z,101987.56
2018-09-03T07:22:54.809Z,101991.26
2018-09-03T07:25:23.809Z,101995.41
2018-09-03T07:27:52.749Z,101991.26
2018-09-03T07:30:21.811Z,101986.59
2018-09-03T07:32:50.818Z,101977.59
2018-09-03T07:35:19.745Z,101979.63
2018-09-03T07:37:48.725Z,101976.73
2018-09-03T07:40:17.637Z,101982.34
2018-09-03T07:42:46.699Z,101982.17
2018-09-03T07:45:15.653Z,101982.35
2018-09-03T07:47:44.676Z,101978.29
2018-09-03T07:50:13.603Z,101981.89
2018-09-03T07:52:42.669Z,101970.25
2018-09-03T07:55:11.675Z,101980.05
2018-09-03T07:57:40.618Z,101973.36
2018-09-03T08:00:09.881Z,101977.62
2018-09-03T08:02:38.801Z,101967.19
2018-09-03T08:05:07.892Z,101963.34
2018-09-03T08:07:36.963Z,101955.80
2018-09-03T08:10:06.259Z,101955.22
2018-09-03T08:12:35.292Z,101939.33
2018-09-03T08:15:04.476Z,101934.03
2018-09-03T08:17:33.388Z,101934.39
2018-09-03T08:20:02.383Z,101944.66
2018-09-03T08:22:31.302Z,101951.43
2018-09-03T08:25:00.202Z,101942.21
2018-09-03T08:27:29.122Z,101947.17
2018-09-03T08:29:58.094Z,101943.69
2018-09-03T08:32:27.114Z,101940.58
2018-09-03T08:34:56.060Z,101939.03
2018-09-03T08:37:24.967Z,101935.52
2018-09-03T08:39:54.084Z,101932.92
2018-09-03T08:42:23.055Z,101928.34
2018-09-03T08:44:52.017Z,101928.34
2018-09-03T08:47:21.043Z,101923.28
2018-09-03T08:49:50.064Z,101924.37
2018-09-03T08:52:19.020Z,101929.95
2018-09-03T08:54:47.951Z,101927.31
2018-09-03T08:57:16.929Z,101932.56
2018-09-03T08:59:45.960Z,101940.29
2018-09-03T09:02:14.897Z,101935.24
2018-09-03T09:04:43.820Z,101937.73
2018-09-03T09:07:12.757Z,101941.80
2018-09-03T09:09:42.311Z,101934.06
2018-09-03T09:12:11.539Z,101936.58
2018-09-03T09:14:41.573Z,101934.83
2018-09-03T09:17:10.559Z,101930.56
2018-09-03T09:19:39.586Z,101929.57
2018-09-03T09:22:08.524Z,101936.36
2018-09-03T09:24:37.582Z,101933.81
2018-09-03T09:27:06.562Z,101929.97
2018-09-03T09:29:35.522Z,101933.61
2018-09-03T09:32:04.576Z,101930.83
2018-09-03T09:34:33.771Z,101930.33
2018-09-03T09:37:02.756Z,101937.32
2018-09-03T09:39:31.744Z,101931.69
2018-09-03T09:42:00.669Z,101929.44
2018-09-03T09:44:29.642Z,101929.31
2018-09-03T09:46:58.624Z,101922.52
2018-09-03T09:49:27.668Z,101918.81
2018-09-03T09:51:56.725Z,101911.73
2018-09-03T09:54:25.680Z,101910.04
2018-09-03T09:56:54.605Z,101915.17
2018-09-03T09:59:23.574Z,101912.34
2018-09-03T10:01:52.493Z,101915.47
2018-09-03T10:04:21.667Z,101905.37
2018-09-03T10:06:50.643Z,101905.63
2018-09-03T10:09:20.017Z,101903.87
2018-09-03T10:11:49.052Z,101905.23
2018-09-03T10:14:17.982Z,101911.87
2018-09-03T10:16:47.151Z,101906.74
2018-09-03T10:19:16.095Z,101899.25
2018-09-03T10:21:45.128Z,101899.91
2018-09-03T10:24:14.084Z,101905.03
2018-09-03T10:26:43.295Z,101903.88
2018-09-03T10:29:12.325Z,101900.41
2018-09-03T10:31:41.427Z,101898.84
2018-09-03T10:34:10.417Z,101898.78
2018-09-03T10:36:39.388Z,101905.63
2018-09-03T10:39:09.472Z,101897.84
2018-09-03T10:41:38.572Z,101888.23
2018-09-03T10:44:07.660Z,101876.45
2018-09-03T10:46:36.724Z,101873.50
2018-09-03T10:49:05.641Z,101870.08
2018-09-03T10:51:34.573Z,101871.13
2018-09-03T10:54:03.504Z,101873.39
2018-09-03T10:56:32.428Z,101871.67
2018-09-03T10:59:01.411Z,101868.32
2018-09-03T11:01:31.885Z,101865.41
2018-09-03T11:04:00.855Z,101863.52
2018-09-03T11:06:29.846Z,101864.52
2018-09-03T11:08:58.860Z,101858.22
2018-09-03T11:11:27.852Z,101860.73
2018-09-03T11:13:56.818Z,101863.84
2018-09-03T11:16:25.724Z,101866.59
2018-09-03T11:18:54.718Z,101860.41
2018-09-03T11:21:23.723Z,101863.05
2018-09-03T11:23:52.596Z,101865.30
2018-09-03T11:26:21.542Z,101861.40
2018-09-03T11:28:50.568Z,101862.37
2018-09-03T11:31:19.468Z,101863.52
2018-09-03T11:33:48.441Z,101861.65
2018-09-03T11:36:17.501Z,101848.69
2018-09-03T11:38:46.466Z,101850.61
2018-09-03T11:41:15.475Z,101846.91
2018-09-03T11:43:44.441Z,101847.05
2018-09-03T11:46:13.469Z,101847.21
2018-09-03T11:48:42.507Z,101849.80
2018-09-03T11:51:11.499Z,101846.47
2018-09-03T11:53:40.499Z,101846.02
2018-09-03T11:56:09.556Z,101837.02
2018-09-03T11:58:38.552Z,101838.16
2018-09-03T12:01:07.468Z,101832.20
2018-09-03T12:03:36.495Z,101834.81
2018-09-03T12:06:05.897Z,101831.36
2018-09-03T12:13:11.121Z,101828.55
2018-09-03T12:16:14.097Z,101832.77
2018-09-03T12:18:43.855Z,101824.73
2018-09-03T12:21:13.807Z,101824.27
2018-09-03T12:23:43.479Z,101816.23
2018-09-03T12:26:12.651Z,101815.11
2018-09-03T12:28:41.643Z,101813.13
2018-09-03T12:31:10.625Z,101811.53
2018-09-03T12:33:39.537Z,101807.21
2018-09-03T12:36:08.467Z,101802.00
2018-09-03T12:38:37.411Z,101802.74
2018-09-03T12:41:06.840Z,101801.05
2018-09-03T12:43:36.021Z,101795.84
2018-09-03T12:46:06.322Z,101794.62
2018-09-03T12:48:35.321Z,101783.95
2018-09-03T12:51:04.951Z,101792.86
2018-09-03T12:53:34.291Z,101792.52
2018-09-03T12:56:04.392Z,101783.58
2018-09-03T12:58:33.362Z,101783.69
2018-09-03T13:01:02.253Z,101775.52
2018-09-03T13:03:31.252Z,101784.04
2018-09-03T13:06:00.153Z,101791.44
2018-09-03T13:08:29.062Z,101788.14
2018-09-03T13:10:58.120Z,101795.41
2018-09-03T13:13:27.062Z,101786.01
2018-09-03T13:15:56.017Z,101794.92
2018-09-03T13:18:24.957Z,101792.69
2018-09-03T13:20:53.880Z,101779.44
2018-09-03T13:23:22.813Z,101791.32
2018-09-03T13:25:51.735Z,101783.42
2018-09-03T13:28:20.692Z,101782.19
2018-09-03T13:30:49.696Z,101783.67
2018-09-03T13:33:18.583Z,101784.81
2018-09-03T13:35:47.571Z,101791.24
2018-09-03T13:38:16.495Z,101789.77
2018-09-03T13:40:45.535Z,101780.22
2018-09-03T13:43:14.538Z,101781.83
2018-09-03T13:45:43.500Z,101771.79
2018-09-03T13:48:12.528Z,101784.55
2018-09-03T13:50:41.642Z,101774.91
2018-09-03T13:53:10.570Z,101777.25
2018-09-03T13:55:39.625Z,101777.75
2018-09-03T13:58:08.664Z,101773.42
2018-09-03T14:00:37.589Z,101771.05
2018-09-03T14:03:06.630Z,101766.97
2018-09-03T14:05:35.660Z,101764.25
2018-09-03T14:08:04.624Z,101760.66
2018-09-03T14:10:33.668Z,101759.30
2018-09-03T14:13:02.749Z,101762.03
2018-09-03T14:15:31.628Z,101759.03
2018-09-03T14:18:00.568Z,101747.14
2018-09-03T14:20:29.481Z,101749.98
2018-09-03T14:22:58.438Z,101747.36
2018-09-03T14:25:27.601Z,101740.81
2018-09-03T14:27:56.660Z,101743.03
2018-09-03T14:30:25.612Z,101741.91
2018-09-03T14:32:54.605Z,101746.77
2018-09-03T14:35:23.595Z,101739.20
2018-09-03T14:37:52.645Z,101739.46
2018-09-03T14:40:21.667Z,101743.41
2018-09-03T14:42:50.594Z,101744.91
2018-09-03T14:45:19.598Z,101744.05
2018-09-03T14:47:48.497Z,101739.19
2018-09-03T14:50:17.486Z,101740.94
2018-09-03T14:52:46.438Z,101740.08
2018-09-03T14:55:15.363Z,101738.83
2018-09-03T14:57:44.382Z,101745.16
2018-09-03T15:00:13.347Z,101737.82
2018-09-03T15:02:48.907Z,101743.91
2018-09-03T15:05:17.883Z,101745.52
2018-09-03T15:07:46.915Z,101743.30
2018-09-03T15:10:15.870Z,101734.61
2018-09-03T15:12:45.019Z,101739.67
2018-09-03T15:15:13.994Z,101744.53
2018-09-03T15:17:43.034Z,101738.45
2018-09-03T15:20:12.111Z,101749.36
2018-09-03T15:22:41.125Z,101744.66
2018-09-03T15:25:10.136Z,101742.06
2018-09-03T15:27:39.220Z,101746.28
2018-09-03T15:30:08.178Z,101746.91
2018-09-03T15:32:37.175Z,101741.81
2018-09-03T15:35:06.215Z,101740.22
2018-09-03T15:37:35.163Z,101734.50
2018-09-03T15:40:04.201Z,101736.76
2018-09-03T15:42:33.188Z,101736.64
2018-09-03T15:45:02.212Z,101739.60
2018-09-03T15:47:32.172Z,101732.91
2018-09-03T15:50:01.139Z,101731.43
2018-09-03T15:52:30.105Z,101733.66
2018-09-03T15:54:59.034Z,101731.16
2018-09-03T15:57:27.971Z,101733.16
2018-09-03T15:59:56.941Z,101734.05
2018-09-03T16:02:25.933Z,101736.48
2018-09-03T16:05:58.524Z,101730.56
2018-09-03T16:08:27.604Z,101728.42
2018-09-03T16:10:56.587Z,101724.61
2018-09-03T16:13:25.595Z,101727.06
2018-09-03T16:15:54.632Z,101730.80
2018-09-03T16:18:23.613Z,101723.98
2018-09-03T16:20:52.666Z,101725.36
2018-09-03T16:23:21.609Z,101726.96
2018-09-03T16:25:50.633Z,101723.84
2018-09-03T16:28:19.621Z,101728.83
2018-09-03T16:30:48.646Z,101731.28
2018-09-03T16:33:17.659Z,101730.81
2018-09-03T16:35:46.708Z,101727.82
2018-09-03T16:38:15.597Z,101725.84
2018-09-03T16:40:44.677Z,101727.08
2018-09-03T16:43:13.675Z,101735.26
2018-09-03T16:45:42.664Z,101732.14
2018-09-03T16:48:11.975Z,101728.69
2018-09-03T16:50:40.928Z,101726.23
2018-09-03T16:55:52.429Z,101725.10
2018-09-03T16:58:21.405Z,101724.24
2018-09-03T17:00:50.501Z,101723.97
2018-09-03T17:03:19.433Z,101733.27
2018-09-03T17:05:49.589Z,101728.80
2018-09-03T17:08:18.788Z,101726.46
2018-09-03T17:10:47.656Z,101730.44
2018-09-03T17:13:16.782Z,101727.83
2018-09-03T17:15:45.926Z,101735.88
2018-09-03T17:18:14.872Z,101731.79
2018-09-03T17:20:43.881Z,101732.27
2018-09-03T17:23:12.831Z,101733.62
2018-09-03T17:25:41.941Z,101733.15
2018-09-03T17:28:10.965Z,101737.70
2018-09-03T17:30:40.499Z,101744.16
2018-09-03T17:33:09.933Z,101738.45
2018-09-03T17:35:39.653Z,101738.44
2018-09-03T17:38:08.921Z,101740.93
2018-09-03T17:40:38.469Z,101736.22
2018-09-03T17:43:07.968Z,101734.98
2018-09-03T17:45:39.726Z,101739.06
2018-09-03T17:48:09.317Z,101744.77
2018-09-03T17:50:38.815Z,101746.98
2018-09-03T17:53:08.601Z,101744.38
2018-09-03T17:55:39.213Z,101751.53
2018-09-03T17:58:08.551Z,101746.81
2018-09-03T18:00:40.039Z,101751.53
2018-09-03T18:03:09.603Z,101753.41
2018-09-03T18:05:39.651Z,101760.94
2018-09-03T18:08:10.601Z,101753.02
2018-09-03T18:10:40.255Z,101756.84
2018-09-03T18:13:09.837Z,101751.15
2018-09-03T18:15:39.816Z,101751.15
2018-09-03T18:18:09.361Z,101753.56
2018-09-03T18:20:38.741Z,101750.72
2018-09-03T18:23:08.353Z,101749.11
2018-09-03T18:25:39.872Z,101744.41
2018-09-03T18:28:09.441Z,101742.44
2018-09-03T18:30:39.274Z,101738.59
2018-09-03T18:33:11.681Z,101738.91
2018-09-03T18:35:41.805Z,101745.38
2018-09-03T18:38:15.617Z,101742.42
2018-09-03T18:40:45.607Z,101745.66
2018-09-03T18:43:15.326Z,101740.69
2018-09-03T18:45:45.066Z,101739.81
2018-09-03T18:48:15.849Z,101740.20
2018-09-03T18:50:45.826Z,101745.89
2018-09-03T18:53:15.958Z,101736.47
2018-09-03T18:55:45.643Z,101734.84
2018-09-03T18:58:16.315Z,101733.59
2018-09-03T19:00:49.170Z,101740.51
2018-09-03T19:03:22.842Z,101744.92
2018-09-03T19:05:54.868Z,101741.36
2018-09-03T19:08:28.983Z,101745.45
2018-09-03T19:10:59.013Z,101745.91
2018-09-03T19:13:29.121Z,101750.58
2018-09-03T19:15:59.894Z,101750.83
2018-09-03T19:18:29.996Z,101749.22
2018-09-03T19:21:00.090Z,101751.02
2018-09-03T19:23:29.862Z,101759.05
2018-09-03T19:25:59.601Z,101754.74
2018-09-03T19:28:29.637Z,101752.99
2018-09-03T19:30:59.376Z,101754.13
2018-09-03T19:33:29.125Z,101759.31
2018-09-03T19:35:58.801Z,101764.16
2018-09-03T19:38:29.343Z,101768.95
2018-09-03T19:40:58.867Z,101767.92
2018-09-03T19:43:29.345Z,101769.03
2018-09-03T19:45:58.634Z,101771.00
2018-09-03T19:48:28.047Z,101771.97
2018-09-03T19:50:57.636Z,101770.08
2018-09-03T19:53:29.347Z,101777.09
2018-09-03T19:55:58.900Z,101769.80
2018-09-03T19:58:28.502Z,101768.80
2018-09-03T20:00:58.655Z,101777.70
2018-09-03T20:03:28.007Z,101770.05
2018-09-03T20:06:03.165Z,101773.27
2018-09-03T20:08:33.219Z,101770.69
2018-09-03T20:11:02.621Z,101764.75
2018-09-03T20:13:32.741Z,101768.80
2018-09-03T20:16:02.381Z,101773.88
2018-09-03T20:18:31.802Z,101773.63
2018-09-03T20:21:01.589Z,101773.02
2018-09-03T20:23:31.470Z,101768.47
2018-09-03T20:26:00.862Z,101773.66
2018-09-03T20:28:30.320Z,101775.16
2018-09-03T20:31:00.038Z,101779.98
2018-09-03T20:33:30.122Z,101774.12
2018-09-03T20:35:59.583Z,101774.66
2018-09-03T20:38:30.203Z,101772.91
2018-09-03T20:40:59.826Z,101763.50
2018-09-03T20:43:29.448Z,101767.97
2018-09-03T20:45:58.840Z,101766.50
2018-09-03T20:48:28.362Z,101768.94
2018-09-03T20:50:58.195Z,101762.28
2018-09-03T20:53:27.523Z,101761.25
2018-09-03T20:55:56.420Z,101761.00
2018-09-03T20:58:25.529Z,101762.61
2018-09-03T21:01:00.255Z,101765.19
2018-09-03T21:03:29.175Z,101763.44
2018-09-03T21:05:59.273Z,101768.16
2018-09-03T21:08:30.644Z,101772.98
2018-09-03T21:11:08.519Z,101774.09
2018-09-03T21:13:39.303Z,101772.91
2018-09-03T21:16:08.603Z,101768.02
2018-09-03T21:18:37.516Z,101769.73
2018-09-03T21:21:07.151Z,101771.12
2018-09-03T21:23:43.543Z,101769.77
2018-09-03T21:26:12.469Z,101765.05
2018-09-03T21:28:42.515Z,101765.75
2018-09-03T21:31:16.088Z,101766.01
2018-09-03T21:33:45.597Z,101764.50
2018-09-03T21:36:14.588Z,101768.33
2018-09-03T21:38:43.775Z,101760.39
2018-09-03T21:41:20.094Z,101763.32
2018-09-03T21:43:49.028Z,101764.57
2018-09-03T21:46:18.214Z,101757.53
2018-09-03T21:48:55.859Z,101767.25
2018-09-03T21:51:33.623Z,101760.47
2018-09-03T21:54:02.728Z,101756.90
2018-09-03T21:56:31.613Z,101761.89
2018-09-03T22:01:59.408Z,101753.91
2018-09-03T22:04:29.266Z,101753.70
2018-09-03T22:07:04.148Z,101760.64
2018-09-03T22:09:35.284Z,101758.69
2018-09-03T22:12:09.056Z,101759.58
2018-09-03T22:14:44.125Z,101759.08
2018-09-03T22:17:13.096Z,101760.09
2018-09-03T22:19:45.938Z,101768.84
2018-09-03T22:22:16.686Z,101770.25
2018-09-03T22:24:52.541Z,101767.72
2018-09-03T22:27:21.462Z,101768.19
2018-09-03T22:29:51.342Z,101767.22
2018-09-03T22:32:24.361Z,101761.69
2018-09-03T22:34:55.028Z,101764.66
2018-09-03T22:37:24.262Z,101766.42
2018-09-03T22:39:59.795Z,101760.48
2018-09-03T22:42:28.907Z,101760.39
2018-09-03T22:45:01.995Z,101762.23
2018-09-03T22:47:33.038Z,101750.12
2018-09-03T22:50:01.941Z,101752.45
2018-09-03T22:52:30.921Z,101746.76
2018-09-03T22:55:03.973Z,101740.34
2018-09-03T22:57:35.037Z,101738.02
2018-09-03T23:00:04.391Z,101738.06
2018-09-03T23:02:38.259Z,101735.61
2018-09-03T23:05:08.694Z,101728.83
2018-09-03T23:07:37.673Z,101721.92
2018-09-03T23:10:07.197Z,101718.20
2018-09-03T23:12:37.199Z,101715.03
2018-09-03T23:17:52.148Z,101710.16
2018-09-03T23:20:21.209Z,101716.80
2018-09-03T23:22:50.171Z,101718.02
2018-09-03T23:25:20.495Z,101714.73
2018-09-03T23:27:52.134Z,101712.02
2018-09-03T23:30:21.622Z,101710.05
2018-09-03T23:32:50.469Z,101693.02
2018-09-03T23:35:19.437Z,101689.86
2018-09-03T23:37:49.862Z,101703.17
2018-09-03T23:40:20.801Z,101693.48
2018-09-03T23:42:50.913Z,101685.39
2018-09-03T23:45:19.818Z,101690.61
2018-09-03T23:47:48.940Z,101688.00
2018-09-03T23:50:19.442Z,101691.16
2018-09-03T23:52:58.826Z,101694.73
2018-09-03T23:55:28.055Z,101689.41
2018-09-03T23:57:57.024Z,101693.77
